sensor_id;sensor_type;location;lat;lon;timestamp;P1;durP1;ratioP1;P2;durP2;ratioP2
30743;SDS011;17486;46.738;7.622;2023-03-01T00:02:16;27.98;;;21.58;;
30743;SDS011;17486;46.738;7.622;2023-03-01T00:04:42;29.92;;;22.98;;
30743;SDS011;17486;46.738;7.622;2023-03-01T00:07:07;29.08;;;22.67;;
30743;SDS011;17486;46.738;7.622;2023-03-01T00:09:32;29.55;;;23.48;;
30743;SDS011;17486;46.738;7.622;2023-03-01T00:11:58;29.60;;;22.50;;
30743;SDS011;17486;46.738;7.622;2023-03-01T00:14:23;29.23;;;21.98;;
30743;SDS011;17486;46.738;7.622;2023-03-01T00:16:49;29.83;;;23.13;;
30743;SDS011;17486;46.738;7.622;2023-03-01T00:19:16;29.95;;;23.25;;
30743;SDS011;17486;46.738;7.622;2023-03-01T00:21:42;30.85;;;22.63;;
30743;SDS011;17486;46.738;7.622;2023-03-01T00:24:08;31.08;;;23.25;;
30743;SDS011;17486;46.738;7.622;2023-03-01T00:26:34;31.02;;;23.65;;
30743;SDS011;17486;46.738;7.622;2023-03-01T00:28:59;27.83;;;22.05;;
30743;SDS011;17486;46.738;7.622;2023-03-01T00:31:26;28.88;;;22.02;;
30743;SDS011;17486;46.738;7.622;2023-03-01T00:33:58;31.85;;;23.10;;
30743;SDS011;17486;46.738;7.622;2023-03-01T00:36:26;30.00;;;22.00;;
30743;SDS011;17486;46.738;7.622;2023-03-01T00:38:54;28.80;;;22.67;;
30743;SDS011;17486;46.738;7.622;2023-03-01T00:41:20;30.50;;;22.92;;
30743;SDS011;17486;46.738;7.622;2023-03-01T00:43:47;31.40;;;22.05;;
30743;SDS011;17486;46.738;7.622;2023-03-01T00:46:18;29.20;;;21.73;;
30743;SDS011;17486;46.738;7.622;2023-03-01T00:48:45;30.23;;;21.98;;
30743;SDS011;17486;46.738;7.622;2023-03-01T00:53:40;28.63;;;22.02;;
30743;SDS011;17486;46.738;7.622;2023-03-01T00:56:06;32.22;;;22.55;;
30743;SDS011;17486;46.738;7.622;2023-03-01T00:58:34;30.48;;;22.95;;
30743;SDS011;17486;46.738;7.622;2023-03-01T01:01:00;29.70;;;22.13;;
30743;SDS011;17486;46.738;7.622;2023-03-01T01:03:31;29.73;;;22.45;;
30743;SDS011;17486;46.738;7.622;2023-03-01T01:05:57;28.42;;;21.88;;
30743;SDS011;17486;46.738;7.622;2023-03-01T01:08:22;28.52;;;22.02;;
30743;SDS011;17486;46.738;7.622;2023-03-01T01:10:48;28.02;;;21.27;;
30743;SDS011;17486;46.738;7.622;2023-03-01T01:13:13;26.67;;;21.10;;
30743;SDS011;17486;46.738;7.622;2023-03-01T01:15:39;28.88;;;22.27;;
30743;SDS011;17486;46.738;7.622;2023-03-01T01:18:05;29.67;;;22.85;;
30743;SDS011;17486;46.738;7.622;2023-03-01T01:20:31;28.13;;;22.00;;
30743;SDS011;17486;46.738;7.622;2023-03-01T01:22:57;29.98;;;23.05;;
30743;SDS011;17486;46.738;7.622;2023-03-01T01:25:22;32.20;;;23.08;;
30743;SDS011;17486;46.738;7.622;2023-03-01T01:27:50;28.77;;;21.23;;
30743;SDS011;17486;46.738;7.622;2023-03-01T01:30:16;29.02;;;22.20;;
30743;SDS011;17486;46.738;7.622;2023-03-01T01:32:41;29.80;;;21.95;;
30743;SDS011;17486;46.738;7.622;2023-03-01T01:35:07;27.40;;;21.63;;
30743;SDS011;17486;46.738;7.622;2023-03-01T01:37:34;29.23;;;21.63;;
30743;SDS011;17486;46.738;7.622;2023-03-01T01:40:00;28.85;;;21.98;;
30743;SDS011;17486;46.738;7.622;2023-03-01T01:42:29;32.53;;;23.67;;
30743;SDS011;17486;46.738;7.622;2023-03-01T01:47:51;31.33;;;23.10;;
30743;SDS011;17486;46.738;7.622;2023-03-01T01:50:19;32.20;;;22.75;;
30743;SDS011;17486;46.738;7.622;2023-03-01T01:52:45;33.13;;;23.70;;
30743;SDS011;17486;46.738;7.622;2023-03-01T01:55:18;31.80;;;23.75;;
30743;SDS011;17486;46.738;7.622;2023-03-01T01:57:48;29.98;;;22.20;;
30743;SDS011;17486;46.738;7.622;2023-03-01T02:00:18;31.02;;;23.38;;
30743;SDS011;17486;46.738;7.622;2023-03-01T02:02:48;32.70;;;24.00;;
30743;SDS011;17486;46.738;7.622;2023-03-01T02:05:28;31.25;;;22.50;;
30743;SDS011;17486;46.738;7.622;2023-03-01T02:07:56;28.75;;;22.08;;
30743;SDS011;17486;46.738;7.622;2023-03-01T02:10:24;31.50;;;22.25;;
30743;SDS011;17486;46.738;7.622;2023-03-01T02:12:50;31.42;;;22.92;;
30743;SDS011;17486;46.738;7.622;2023-03-01T02:15:17;30.10;;;22.42;;
30743;SDS011;17486;46.738;7.622;2023-03-01T02:17:42;31.40;;;23.17;;
30743;SDS011;17486;46.738;7.622;2023-03-01T02:23:06;35.42;;;23.80;;
30743;SDS011;17486;46.738;7.622;2023-03-01T02:30:40;30.55;;;22.55;;
30743;SDS011;17486;46.738;7.622;2023-03-01T02:33:27;30.65;;;23.23;;
30743;SDS011;17486;46.738;7.622;2023-03-01T02:35:58;32.05;;;23.30;;
30743;SDS011;17486;46.738;7.622;2023-03-01T02:38:26;28.90;;;22.27;;
30743;SDS011;17486;46.738;7.622;2023-03-01T02:40:53;29.52;;;22.02;;
30743;SDS011;17486;46.738;7.622;2023-03-01T02:43:21;29.85;;;22.40;;
30743;SDS011;17486;46.738;7.622;2023-03-01T02:45:50;31.10;;;22.92;;
30743;SDS011;17486;46.738;7.622;2023-03-01T02:48:17;31.77;;;23.40;;
30743;SDS011;17486;46.738;7.622;2023-03-01T02:56:11;31.27;;;22.60;;
30743;SDS011;17486;46.738;7.622;2023-03-01T02:58:39;30.88;;;23.48;;
30743;SDS011;17486;46.738;7.622;2023-03-01T03:01:10;29.90;;;23.10;;
30743;SDS011;17486;46.738;7.622;2023-03-01T03:03:39;31.92;;;24.67;;
30743;SDS011;17486;46.738;7.622;2023-03-01T03:06:05;29.38;;;22.77;;
30743;SDS011;17486;46.738;7.622;2023-03-01T03:08:31;30.50;;;22.90;;
30743;SDS011;17486;46.738;7.622;2023-03-01T03:10:56;31.25;;;23.30;;
30743;SDS011;17486;46.738;7.622;2023-03-01T03:13:22;29.42;;;22.08;;
30743;SDS011;17486;46.738;7.622;2023-03-01T03:15:53;30.63;;;22.63;;
30743;SDS011;17486;46.738;7.622;2023-03-01T03:18:20;31.77;;;24.55;;
30743;SDS011;17486;46.738;7.622;2023-03-01T03:20:47;29.90;;;22.63;;
30743;SDS011;17486;46.738;7.622;2023-03-01T03:23:12;30.58;;;22.52;;
30743;SDS011;17486;46.738;7.622;2023-03-01T03:25:38;32.00;;;22.65;;
30743;SDS011;17486;46.738;7.622;2023-03-01T03:28:04;33.80;;;23.10;;
30743;SDS011;17486;46.738;7.622;2023-03-01T03:30:35;31.02;;;22.92;;
30743;SDS011;17486;46.738;7.622;2023-03-01T03:33:04;31.88;;;22.40;;
30743;SDS011;17486;46.738;7.622;2023-03-01T03:35:34;33.53;;;23.98;;
30743;SDS011;17486;46.738;7.622;2023-03-01T03:38:05;30.83;;;22.95;;
30743;SDS011;17486;46.738;7.622;2023-03-01T03:45:33;33.60;;;24.08;;
30743;SDS011;17486;46.738;7.622;2023-03-01T03:48:00;33.58;;;23.48;;
30743;SDS011;17486;46.738;7.622;2023-03-01T03:50:26;33.25;;;24.17;;
30743;SDS011;17486;46.738;7.622;2023-03-01T03:52:51;30.73;;;22.20;;
30743;SDS011;17486;46.738;7.622;2023-03-01T03:55:17;31.45;;;23.48;;
30743;SDS011;17486;46.738;7.622;2023-03-01T03:57:44;36.15;;;24.45;;
30743;SDS011;17486;46.738;7.622;2023-03-01T04:00:16;32.35;;;24.08;;
30743;SDS011;17486;46.738;7.622;2023-03-01T04:02:44;30.60;;;22.67;;
30743;SDS011;17486;46.738;7.622;2023-03-01T04:05:11;33.38;;;23.85;;
30743;SDS011;17486;46.738;7.622;2023-03-01T04:07:37;33.05;;;24.00;;
30743;SDS011;17486;46.738;7.622;2023-03-01T04:10:07;32.33;;;24.00;;
30743;SDS011;17486;46.738;7.622;2023-03-01T04:12:35;32.95;;;24.27;;
30743;SDS011;17486;46.738;7.622;2023-03-01T04:15:01;32.25;;;23.80;;
30743;SDS011;17486;46.738;7.622;2023-03-01T04:17:37;34.08;;;25.13;;
30743;SDS011;17486;46.738;7.622;2023-03-01T04:20:11;33.72;;;23.40;;
30743;SDS011;17486;46.738;7.622;2023-03-01T04:22:42;32.58;;;23.85;;
30743;SDS011;17486;46.738;7.622;2023-03-01T04:25:11;36.00;;;24.85;;
30743;SDS011;17486;46.738;7.622;2023-03-01T04:27:39;32.95;;;23.27;;
30743;SDS011;17486;46.738;7.622;2023-03-01T04:30:05;33.58;;;24.50;;
30743;SDS011;17486;46.738;7.622;2023-03-01T04:32:31;33.05;;;23.85;;
30743;SDS011;17486;46.738;7.622;2023-03-01T04:34:57;32.35;;;23.90;;
30743;SDS011;17486;46.738;7.622;2023-03-01T04:37:22;34.50;;;24.67;;
30743;SDS011;17486;46.738;7.622;2023-03-01T04:39:49;34.08;;;24.80;;
30743;SDS011;17486;46.738;7.622;2023-03-01T04:42:15;34.72;;;24.83;;
30743;SDS011;17486;46.738;7.622;2023-03-01T04:44:41;32.97;;;23.92;;
30743;SDS011;17486;46.738;7.622;2023-03-01T04:47:07;33.97;;;23.20;;
30743;SDS011;17486;46.738;7.622;2023-03-01T04:49:33;32.17;;;23.42;;
30743;SDS011;17486;46.738;7.622;2023-03-01T04:51:58;33.58;;;23.27;;
30743;SDS011;17486;46.738;7.622;2023-03-01T04:54:27;32.92;;;23.55;;
30743;SDS011;17486;46.738;7.622;2023-03-01T04:56:53;33.88;;;23.67;;
30743;SDS011;17486;46.738;7.622;2023-03-01T04:59:18;33.90;;;24.15;;
30743;SDS011;17486;46.738;7.622;2023-03-01T05:01:47;33.45;;;22.90;;
30743;SDS011;17486;46.738;7.622;2023-03-01T05:04:13;30.48;;;21.88;;
30743;SDS011;17486;46.738;7.622;2023-03-01T05:06:38;33.60;;;22.70;;
30743;SDS011;17486;46.738;7.622;2023-03-01T05:09:04;32.53;;;23.50;;
30743;SDS011;17486;46.738;7.622;2023-03-01T05:11:30;33.65;;;23.55;;
30743;SDS011;17486;46.738;7.622;2023-03-01T05:13:58;35.33;;;24.58;;
30743;SDS011;17486;46.738;7.622;2023-03-01T05:16:24;35.90;;;23.65;;
30743;SDS011;17486;46.738;7.622;2023-03-01T05:18:49;29.75;;;21.10;;
30743;SDS011;17486;46.738;7.622;2023-03-01T05:21:20;29.90;;;21.10;;
30743;SDS011;17486;46.738;7.622;2023-03-01T05:23:46;28.98;;;20.45;;
30743;SDS011;17486;46.738;7.622;2023-03-01T05:26:12;30.48;;;21.38;;
30743;SDS011;17486;46.738;7.622;2023-03-01T05:28:38;31.92;;;22.55;;
30743;SDS011;17486;46.738;7.622;2023-03-01T05:31:04;28.73;;;21.38;;
30743;SDS011;17486;46.738;7.622;2023-03-01T05:33:34;30.58;;;22.17;;
30743;SDS011;17486;46.738;7.622;2023-03-01T05:36:04;32.30;;;22.63;;
30743;SDS011;17486;46.738;7.622;2023-03-01T05:38:30;28.50;;;20.75;;
30743;SDS011;17486;46.738;7.622;2023-03-01T05:40:56;34.65;;;22.10;;
30743;SDS011;17486;46.738;7.622;2023-03-01T05:43:21;30.13;;;21.55;;
30743;SDS011;17486;46.738;7.622;2023-03-01T05:45:47;31.58;;;21.85;;
30743;SDS011;17486;46.738;7.622;2023-03-01T05:48:12;31.35;;;21.83;;
30743;SDS011;17486;46.738;7.622;2023-03-01T05:50:40;32.05;;;22.63;;
30743;SDS011;17486;46.738;7.622;2023-03-01T05:53:11;32.10;;;23.25;;
30743;SDS011;17486;46.738;7.622;2023-03-01T05:55:46;30.65;;;21.45;;
30743;SDS011;17486;46.738;7.622;2023-03-01T05:58:16;33.00;;;23.55;;
30743;SDS011;17486;46.738;7.622;2023-03-01T06:00:44;32.00;;;23.25;;
30743;SDS011;17486;46.738;7.622;2023-03-01T06:03:13;30.40;;;21.67;;
30743;SDS011;17486;46.738;7.622;2023-03-01T06:05:39;31.85;;;22.67;;
30743;SDS011;17486;46.738;7.622;2023-03-01T06:08:05;33.85;;;22.63;;
30743;SDS011;17486;46.738;7.622;2023-03-01T06:10:31;32.28;;;22.83;;
30743;SDS011;17486;46.738;7.622;2023-03-01T06:12:57;33.80;;;23.05;;
30743;SDS011;17486;46.738;7.622;2023-03-01T06:15:22;31.58;;;21.63;;
30743;SDS011;17486;46.738;7.622;2023-03-01T06:17:48;31.98;;;22.08;;
30743;SDS011;17486;46.738;7.622;2023-03-01T06:20:15;32.25;;;22.45;;
30743;SDS011;17486;46.738;7.622;2023-03-01T06:22:42;32.67;;;23.30;;
30743;SDS011;17486;46.738;7.622;2023-03-01T06:25:09;32.22;;;22.75;;
30743;SDS011;17486;46.738;7.622;2023-03-01T06:27:35;30.55;;;21.95;;
30743;SDS011;17486;46.738;7.622;2023-03-01T06:30:01;33.20;;;22.33;;
30743;SDS011;17486;46.738;7.622;2023-03-01T06:32:26;34.10;;;22.95;;
30743;SDS011;17486;46.738;7.622;2023-03-01T06:34:52;32.80;;;23.05;;
30743;SDS011;17486;46.738;7.622;2023-03-01T06:37:17;33.38;;;23.00;;
30743;SDS011;17486;46.738;7.622;2023-03-01T06:39:43;33.10;;;23.30;;
30743;SDS011;17486;46.738;7.622;2023-03-01T06:42:08;32.92;;;22.90;;
30743;SDS011;17486;46.738;7.622;2023-03-01T06:44:37;34.08;;;23.33;;
30743;SDS011;17486;46.738;7.622;2023-03-01T06:47:03;39.20;;;24.77;;
30743;SDS011;17486;46.738;7.622;2023-03-01T06:49:29;32.95;;;23.00;;
30743;SDS011;17486;46.738;7.622;2023-03-01T06:51:56;34.78;;;24.25;;
30743;SDS011;17486;46.738;7.622;2023-03-01T06:54:21;32.05;;;22.25;;
30743;SDS011;17486;46.738;7.622;2023-03-01T06:56:47;31.90;;;22.35;;
30743;SDS011;17486;46.738;7.622;2023-03-01T06:59:14;82.97;;;58.13;;
30743;SDS011;17486;46.738;7.622;2023-03-01T07:01:40;99.70;;;66.97;;
30743;SDS011;17486;46.738;7.622;2023-03-01T07:04:05;159.05;;;95.57;;
30743;SDS011;17486;46.738;7.622;2023-03-01T07:06:30;122.97;;;70.65;;
30743;SDS011;17486;46.738;7.622;2023-03-01T07:08:56;65.15;;;40.42;;
30743;SDS011;17486;46.738;7.622;2023-03-01T07:11:21;41.60;;;27.92;;
30743;SDS011;17486;46.738;7.622;2023-03-01T07:13:47;38.25;;;26.33;;
30743;SDS011;17486;46.738;7.622;2023-03-01T07:16:12;34.63;;;23.98;;
30743;SDS011;17486;46.738;7.622;2023-03-01T07:18:39;35.42;;;23.65;;
30743;SDS011;17486;46.738;7.622;2023-03-01T07:21:06;37.75;;;23.45;;
30743;SDS011;17486;46.738;7.622;2023-03-01T07:23:33;34.10;;;23.35;;
30743;SDS011;17486;46.738;7.622;2023-03-01T07:25:58;33.47;;;22.90;;
30743;SDS011;17486;46.738;7.622;2023-03-01T07:28:25;84.63;;;55.55;;
30743;SDS011;17486;46.738;7.622;2023-03-01T07:30:51;146.95;;;97.25;;
30743;SDS011;17486;46.738;7.622;2023-03-01T07:33:16;160.65;;;105.30;;
30743;SDS011;17486;46.738;7.622;2023-03-01T07:35:42;164.50;;;102.75;;
30743;SDS011;17486;46.738;7.622;2023-03-01T07:38:07;81.03;;;50.30;;
30743;SDS011;17486;46.738;7.622;2023-03-01T07:40:33;50.75;;;31.75;;
30743;SDS011;17486;46.738;7.622;2023-03-01T07:42:59;38.03;;;26.10;;
30743;SDS011;17486;46.738;7.622;2023-03-01T07:45:26;35.92;;;24.42;;
30743;SDS011;17486;46.738;7.622;2023-03-01T07:47:52;33.38;;;23.08;;
30743;SDS011;17486;46.738;7.622;2023-03-01T07:50:18;34.42;;;23.98;;
30743;SDS011;17486;46.738;7.622;2023-03-01T07:52:47;35.55;;;23.67;;
30743;SDS011;17486;46.738;7.622;2023-03-01T07:55:14;33.65;;;23.13;;
30743;SDS011;17486;46.738;7.622;2023-03-01T07:57:41;36.83;;;24.60;;
30743;SDS011;17486;46.738;7.622;2023-03-01T08:00:07;37.67;;;24.83;;
30743;SDS011;17486;46.738;7.622;2023-03-01T08:02:35;33.40;;;22.88;;
30743;SDS011;17486;46.738;7.622;2023-03-01T08:05:01;35.63;;;23.75;;
30743;SDS011;17486;46.738;7.622;2023-03-01T08:07:26;31.05;;;21.35;;
30743;SDS011;17486;46.738;7.622;2023-03-01T08:09:52;33.88;;;22.60;;
30743;SDS011;17486;46.738;7.622;2023-03-01T08:12:17;31.15;;;19.63;;
30743;SDS011;17486;46.738;7.622;2023-03-01T08:14:43;32.20;;;22.00;;
30743;SDS011;17486;46.738;7.622;2023-03-01T08:17:08;30.23;;;19.98;;
30743;SDS011;17486;46.738;7.622;2023-03-01T08:19:34;143.40;;;89.22;;
30743;SDS011;17486;46.738;7.622;2023-03-01T08:22:00;189.90;;;114.82;;
30743;SDS011;17486;46.738;7.622;2023-03-01T08:24:27;236.43;;;143.43;;
30743;SDS011;17486;46.738;7.622;2023-03-01T08:26:54;121.55;;;72.60;;
30743;SDS011;17486;46.738;7.622;2023-03-01T08:29:20;59.45;;;38.17;;
30743;SDS011;17486;46.738;7.622;2023-03-01T08:31:45;43.58;;;28.15;;
30743;SDS011;17486;46.738;7.622;2023-03-01T08:34:13;32.28;;;23.27;;
30743;SDS011;17486;46.738;7.622;2023-03-01T08:36:41;32.15;;;22.15;;
30743;SDS011;17486;46.738;7.622;2023-03-01T08:39:08;32.30;;;22.90;;
30743;SDS011;17486;46.738;7.622;2023-03-01T08:41:36;36.15;;;24.60;;
30743;SDS011;17486;46.738;7.622;2023-03-01T08:44:02;36.47;;;23.60;;
30743;SDS011;17486;46.738;7.622;2023-03-01T08:46:28;32.45;;;22.70;;
30743;SDS011;17486;46.738;7.622;2023-03-01T08:48:55;36.10;;;23.92;;
30743;SDS011;17486;46.738;7.622;2023-03-01T08:51:21;33.75;;;23.50;;
30743;SDS011;17486;46.738;7.622;2023-03-01T08:53:48;34.42;;;23.73;;
30743;SDS011;17486;46.738;7.622;2023-03-01T08:56:14;34.42;;;23.30;;
30743;SDS011;17486;46.738;7.622;2023-03-01T08:58:43;34.40;;;23.95;;
30743;SDS011;17486;46.738;7.622;2023-03-01T09:01:10;33.08;;;22.77;;
30743;SDS011;17486;46.738;7.622;2023-03-01T09:03:37;34.03;;;23.05;;
30743;SDS011;17486;46.738;7.622;2023-03-01T09:06:04;30.08;;;20.83;;
30743;SDS011;17486;46.738;7.622;2023-03-01T09:08:30;37.28;;;25.02;;
30743;SDS011;17486;46.738;7.622;2023-03-01T09:11:01;33.97;;;22.83;;
30743;SDS011;17486;46.738;7.622;2023-03-01T09:13:28;35.60;;;23.48;;
30743;SDS011;17486;46.738;7.622;2023-03-01T09:15:56;31.92;;;21.70;;
30743;SDS011;17486;46.738;7.622;2023-03-01T09:18:22;32.55;;;22.13;;
30743;SDS011;17486;46.738;7.622;2023-03-01T09:20:47;32.22;;;22.58;;
30743;SDS011;17486;46.738;7.622;2023-03-01T09:23:13;36.42;;;23.33;;
30743;SDS011;17486;46.738;7.622;2023-03-01T09:25:39;36.22;;;23.27;;
30743;SDS011;17486;46.738;7.622;2023-03-01T09:28:05;34.33;;;23.15;;
30743;SDS011;17486;46.738;7.622;2023-03-01T09:30:30;35.25;;;23.63;;
30743;SDS011;17486;46.738;7.622;2023-03-01T09:32:56;36.13;;;23.10;;
30743;SDS011;17486;46.738;7.622;2023-03-01T09:35:22;37.80;;;24.42;;
30743;SDS011;17486;46.738;7.622;2023-03-01T09:37:48;35.45;;;23.08;;
30743;SDS011;17486;46.738;7.622;2023-03-01T09:40:19;34.50;;;22.35;;
30743;SDS011;17486;46.738;7.622;2023-03-01T09:47:53;32.65;;;21.77;;
30743;SDS011;17486;46.738;7.622;2023-03-01T09:50:20;33.65;;;21.70;;
30743;SDS011;17486;46.738;7.622;2023-03-01T09:55:20;33.00;;;22.50;;
30743;SDS011;17486;46.738;7.622;2023-03-01T10:00:31;31.08;;;21.23;;
30743;SDS011;17486;46.738;7.622;2023-03-01T10:08:31;32.17;;;21.50;;
30743;SDS011;17486;46.738;7.622;2023-03-01T10:11:01;32.20;;;21.48;;
30743;SDS011;17486;46.738;7.622;2023-03-01T10:16:52;30.13;;;20.25;;
30743;SDS011;17486;46.738;7.622;2023-03-01T10:21:55;29.65;;;20.52;;
30743;SDS011;17486;46.738;7.622;2023-03-01T10:26:57;28.00;;;18.40;;
30743;SDS011;17486;46.738;7.622;2023-03-01T10:29:39;32.40;;;22.00;;
30743;SDS011;17486;46.738;7.622;2023-03-01T10:32:29;132.15;;;81.30;;
30743;SDS011;17486;46.738;7.622;2023-03-01T10:34:54;122.18;;;74.25;;
30743;SDS011;17486;46.738;7.622;2023-03-01T10:37:20;106.43;;;62.10;;
30743;SDS011;17486;46.738;7.622;2023-03-01T10:39:56;129.23;;;77.03;;
30743;SDS011;17486;46.738;7.622;2023-03-01T10:42:32;87.75;;;51.78;;
30743;SDS011;17486;46.738;7.622;2023-03-01T10:48:34;36.50;;;23.77;;
30743;SDS011;17486;46.738;7.622;2023-03-01T10:50:50;35.10;;;22.63;;
30743;SDS011;17486;46.738;7.622;2023-03-01T10:53:44;31.65;;;21.92;;
30743;SDS011;17486;46.738;7.622;2023-03-01T10:56:15;31.73;;;21.25;;
30743;SDS011;17486;46.738;7.622;2023-03-01T10:59:02;33.55;;;22.58;;
30743;SDS011;17486;46.738;7.622;2023-03-01T11:01:33;32.63;;;23.00;;
30743;SDS011;17486;46.738;7.622;2023-03-01T11:06:31;32.20;;;21.58;;
30743;SDS011;17486;46.738;7.622;2023-03-01T11:09:12;31.63;;;21.48;;
30743;SDS011;17486;46.738;7.622;2023-03-01T11:11:52;32.53;;;22.70;;
30743;SDS011;17486;46.738;7.622;2023-03-01T11:14:24;31.40;;;20.75;;
30743;SDS011;17486;46.738;7.622;2023-03-01T11:19:30;30.55;;;21.10;;
30743;SDS011;17486;46.738;7.622;2023-03-01T11:22:01;29.77;;;20.67;;
30743;SDS011;17486;46.738;7.622;2023-03-01T11:24:40;29.15;;;20.63;;
30743;SDS011;17486;46.738;7.622;2023-03-01T11:27:31;32.42;;;20.95;;
30743;SDS011;17486;46.738;7.622;2023-03-01T11:32:50;32.72;;;22.35;;
30743;SDS011;17486;46.738;7.622;2023-03-01T11:35:21;33.45;;;22.58;;
30743;SDS011;17486;46.738;7.622;2023-03-01T11:40:23;30.88;;;21.42;;
30743;SDS011;17486;46.738;7.622;2023-03-01T11:50:46;163.38;;;111.20;;
30743;SDS011;17486;46.738;7.622;2023-03-01T11:56:28;92.50;;;56.92;;
30743;SDS011;17486;46.738;7.622;2023-03-01T12:07:18;248.30;;;144.23;;
30743;SDS011;17486;46.738;7.622;2023-03-01T12:12:49;44.85;;;29.50;;
30743;SDS011;17486;46.738;7.622;2023-03-01T12:15:45;32.63;;;23.25;;
30743;SDS011;17486;46.738;7.622;2023-03-01T12:18:21;31.45;;;21.27;;
30743;SDS011;17486;46.738;7.622;2023-03-01T12:26:01;27.65;;;19.70;;
30743;SDS011;17486;46.738;7.622;2023-03-01T12:28:51;30.08;;;20.42;;
30743;SDS011;17486;46.738;7.622;2023-03-01T12:37:18;29.08;;;20.70;;
30743;SDS011;17486;46.738;7.622;2023-03-01T12:45:26;101.85;;;64.88;;
30743;SDS011;17486;46.738;7.622;2023-03-01T12:47:58;191.80;;;118.25;;
30743;SDS011;17486;46.738;7.622;2023-03-01T12:50:29;137.05;;;86.53;;
30743;SDS011;17486;46.738;7.622;2023-03-01T12:53:25;68.57;;;44.78;;
30743;SDS011;17486;46.738;7.622;2023-03-01T12:55:58;38.13;;;26.50;;
30743;SDS011;17486;46.738;7.622;2023-03-01T12:58:44;31.33;;;21.63;;
30743;SDS011;17486;46.738;7.622;2023-03-01T13:01:46;30.10;;;22.00;;
30743;SDS011;17486;46.738;7.622;2023-03-01T13:10:39;26.85;;;19.73;;
30743;SDS011;17486;46.738;7.622;2023-03-01T13:13:20;28.90;;;20.77;;
30743;SDS011;17486;46.738;7.622;2023-03-01T13:15:47;27.30;;;19.77;;
30743;SDS011;17486;46.738;7.622;2023-03-01T13:31:00;28.85;;;20.15;;
30743;SDS011;17486;46.738;7.622;2023-03-01T13:35:54;337.05;;;221.35;;
30743;SDS011;17486;46.738;7.622;2023-03-01T13:41:13;85.97;;;54.73;;
30743;SDS011;17486;46.738;7.622;2023-03-01T13:43:41;45.08;;;29.58;;
30743;SDS011;17486;46.738;7.622;2023-03-01T13:46:21;29.17;;;22.08;;
30743;SDS011;17486;46.738;7.622;2023-03-01T13:48:50;27.67;;;21.15;;
30743;SDS011;17486;46.738;7.622;2023-03-01T13:51:21;27.40;;;21.08;;
30743;SDS011;17486;46.738;7.622;2023-03-01T13:53:50;28.10;;;21.10;;
30743;SDS011;17486;46.738;7.622;2023-03-01T13:56:24;30.75;;;22.85;;
30743;SDS011;17486;46.738;7.622;2023-03-01T13:58:59;27.95;;;20.38;;
30743;SDS011;17486;46.738;7.622;2023-03-01T14:03:58;26.52;;;20.20;;
30743;SDS011;17486;46.738;7.622;2023-03-01T14:06:28;29.10;;;21.02;;
30743;SDS011;17486;46.738;7.622;2023-03-01T14:09:03;28.05;;;21.35;;
30743;SDS011;17486;46.738;7.622;2023-03-01T14:11:42;27.63;;;21.90;;
30743;SDS011;17486;46.738;7.622;2023-03-01T14:19:25;27.65;;;21.63;;
30743;SDS011;17486;46.738;7.622;2023-03-01T14:24:51;28.85;;;21.20;;
30743;SDS011;17486;46.738;7.622;2023-03-01T14:27:40;30.38;;;22.85;;
30743;SDS011;17486;46.738;7.622;2023-03-01T14:30:41;28.88;;;22.13;;
30743;SDS011;17486;46.738;7.622;2023-03-01T14:33:04;31.25;;;23.33;;
30743;SDS011;17486;46.738;7.622;2023-03-01T14:35:42;34.70;;;24.20;;
30743;SDS011;17486;46.738;7.622;2023-03-01T14:38:19;30.92;;;24.05;;
30743;SDS011;17486;46.738;7.622;2023-03-01T14:40:46;328.77;;;227.32;;
30743;SDS011;17486;46.738;7.622;2023-03-01T14:43:20;648.78;;;492.67;;
30743;SDS011;17486;46.738;7.622;2023-03-01T14:45:50;273.13;;;190.40;;
30743;SDS011;17486;46.738;7.622;2023-03-01T14:48:15;92.55;;;65.07;;
30743;SDS011;17486;46.738;7.622;2023-03-01T14:50:42;45.15;;;32.25;;
30743;SDS011;17486;46.738;7.622;2023-03-01T14:53:19;37.08;;;25.35;;
30743;SDS011;17486;46.738;7.622;2023-03-01T14:55:51;33.95;;;24.65;;
30743;SDS011;17486;46.738;7.622;2023-03-01T14:58:25;34.83;;;25.27;;
30743;SDS011;17486;46.738;7.622;2023-03-01T15:00:52;36.50;;;26.13;;
30743;SDS011;17486;46.738;7.622;2023-03-01T15:06:02;32.95;;;24.52;;
30743;SDS011;17486;46.738;7.622;2023-03-01T15:08:29;35.67;;;25.00;;
30743;SDS011;17486;46.738;7.622;2023-03-01T15:13:39;35.30;;;25.67;;
30743;SDS011;17486;46.738;7.622;2023-03-01T15:18:43;244.95;;;160.15;;
30743;SDS011;17486;46.738;7.622;2023-03-01T15:23:53;75.93;;;49.35;;
30743;SDS011;17486;46.738;7.622;2023-03-01T15:26:25;45.83;;;31.42;;
30743;SDS011;17486;46.738;7.622;2023-03-01T15:28:57;164.73;;;109.10;;
30743;SDS011;17486;46.738;7.622;2023-03-01T15:31:25;410.05;;;288.13;;
30743;SDS011;17486;46.738;7.622;2023-03-01T15:33:51;421.02;;;299.73;;
30743;SDS011;17486;46.738;7.622;2023-03-01T15:36:35;137.00;;;91.38;;
30743;SDS011;17486;46.738;7.622;2023-03-01T15:39:05;67.97;;;47.05;;
30743;SDS011;17486;46.738;7.622;2023-03-01T15:41:55;39.97;;;28.15;;
30743;SDS011;17486;46.738;7.622;2023-03-01T15:44:28;38.25;;;25.90;;
30743;SDS011;17486;46.738;7.622;2023-03-01T15:46:55;36.08;;;24.90;;
30743;SDS011;17486;46.738;7.622;2023-03-01T15:51:56;36.33;;;24.25;;
30743;SDS011;17486;46.738;7.622;2023-03-01T15:54:23;36.03;;;24.75;;
30743;SDS011;17486;46.738;7.622;2023-03-01T15:56:50;38.13;;;25.75;;
30743;SDS011;17486;46.738;7.622;2023-03-01T15:59:16;33.50;;;23.30;;
30743;SDS011;17486;46.738;7.622;2023-03-01T16:01:43;33.55;;;24.17;;
30743;SDS011;17486;46.738;7.622;2023-03-01T16:04:13;39.05;;;26.48;;
30743;SDS011;17486;46.738;7.622;2023-03-01T16:06:52;37.22;;;24.92;;
30743;SDS011;17486;46.738;7.622;2023-03-01T16:09:24;35.97;;;24.73;;
30743;SDS011;17486;46.738;7.622;2023-03-01T16:11:51;35.78;;;25.27;;
30743;SDS011;17486;46.738;7.622;2023-03-01T16:14:18;66.10;;;46.95;;
30743;SDS011;17486;46.738;7.622;2023-03-01T16:16:44;257.55;;;177.05;;
30743;SDS011;17486;46.738;7.622;2023-03-01T16:19:10;258.77;;;161.48;;
30743;SDS011;17486;46.738;7.622;2023-03-01T16:21:36;307.38;;;193.05;;
30743;SDS011;17486;46.738;7.622;2023-03-01T16:24:02;130.45;;;80.60;;
30743;SDS011;17486;46.738;7.622;2023-03-01T16:26:28;68.75;;;43.85;;
30743;SDS011;17486;46.738;7.622;2023-03-01T16:28:56;147.38;;;102.22;;
30743;SDS011;17486;46.738;7.622;2023-03-01T16:31:23;382.67;;;268.17;;
30743;SDS011;17486;46.738;7.622;2023-03-01T16:33:55;457.75;;;308.05;;
30743;SDS011;17486;46.738;7.622;2023-03-01T16:36:22;229.40;;;141.20;;
30743;SDS011;17486;46.738;7.622;2023-03-01T16:38:48;91.72;;;57.22;;
30743;SDS011;17486;46.738;7.622;2023-03-01T16:41:16;48.22;;;32.67;;
30743;SDS011;17486;46.738;7.622;2023-03-01T16:43:43;44.08;;;28.52;;
30743;SDS011;17486;46.738;7.622;2023-03-01T16:46:12;40.17;;;25.58;;
30743;SDS011;17486;46.738;7.622;2023-03-01T16:48:45;245.48;;;165.30;;
30743;SDS011;17486;46.738;7.622;2023-03-01T16:51:11;298.15;;;198.20;;
30743;SDS011;17486;46.738;7.622;2023-03-01T16:53:37;347.02;;;230.27;;
30743;SDS011;17486;46.738;7.622;2023-03-01T16:56:05;159.85;;;96.72;;
30743;SDS011;17486;46.738;7.622;2023-03-01T16:58:32;79.22;;;49.30;;